createdAt,value
2023-02-13T00:00:22.956Z,42.60
2023-02-13T00:00:55.795Z,42.67
2023-02-13T00:01:28.287Z,42.41
2023-02-13T00:02:03.168Z,42.58
2023-02-13T00:02:35.414Z,42.70
2023-02-13T00:03:07.702Z,42.58
2023-02-13T00:03:42.621Z,42.52
2023-02-13T00:04:14.952Z,42.37
2023-02-13T00:04:47.254Z,42.75
2023-02-13T00:05:22.114Z,42.76
2023-02-13T00:05:54.378Z,42.82
2023-02-13T00:06:27.012Z,42.53
2023-02-13T00:07:01.840Z,42.72
2023-02-13T00:07:34.091Z,42.51
2023-02-13T00:08:06.334Z,42.45
2023-02-13T00:08:41.151Z,42.78
2023-02-13T00:09:16.096Z,42.58
2023-02-13T00:09:48.311Z,42.55
2023-02-13T00:10:23.324Z,42.50
2023-02-13T00:10:55.853Z,42.79
2023-02-13T00:11:28.307Z,42.39
2023-02-13T00:12:03.117Z,42.69
2023-02-13T00:12:35.842Z,42.33
2023-02-13T00:13:08.087Z,42.55
2023-02-13T00:13:43.130Z,42.62
2023-02-13T00:14:15.343Z,42.60
2023-02-13T00:14:47.561Z,42.70
2023-02-13T00:15:22.406Z,42.65
2023-02-13T00:15:58.419Z,42.78
2023-02-13T00:16:30.940Z,42.50
2023-02-13T00:17:06.158Z,42.84
2023-02-13T00:17:38.401Z,42.55
2023-02-13T00:18:10.621Z,42.62
2023-02-13T00:18:45.446Z,42.65
2023-02-13T00:19:17.678Z,42.68
2023-02-13T00:19:49.899Z,42.89
2023-02-13T00:20:24.754Z,42.84
2023-02-13T00:21:01.287Z,42.84
2023-02-13T00:21:37.149Z,42.60
2023-02-13T00:22:10.028Z,42.67
2023-02-13T00:22:42.338Z,42.82
2023-02-13T00:23:14.553Z,42.63
2023-02-13T00:23:49.370Z,42.86
2023-02-13T00:24:24.580Z,42.75
2023-02-13T00:24:56.862Z,42.41
2023-02-13T00:25:29.234Z,42.86
2023-02-13T00:26:07.588Z,42.64
2023-02-13T00:26:40.915Z,42.72
2023-02-13T00:27:13.184Z,42.69
2023-02-13T00:27:48.010Z,42.82
2023-02-13T00:28:20.255Z,42.72
2023-02-13T00:28:52.569Z,42.70
2023-02-13T00:29:27.405Z,42.86
2023-02-13T00:29:59.868Z,42.88
2023-02-13T00:30:32.093Z,42.40
2023-02-13T00:31:09.076Z,42.41
2023-02-13T00:31:41.529Z,42.72
2023-02-13T00:32:14.832Z,42.61
2023-02-13T00:32:49.761Z,42.58
2023-02-13T00:33:21.980Z,42.61
2023-02-13T00:33:54.262Z,42.47
2023-02-13T00:34:29.102Z,42.63
2023-02-13T00:35:01.365Z,42.98
2023-02-13T00:35:36.007Z,42.82
2023-02-13T00:36:12.808Z,42.37
2023-02-13T00:36:45.108Z,42.53
2023-02-13T00:37:17.392Z,42.42
2023-02-13T00:37:52.213Z,42.43
2023-02-13T00:38:24.432Z,42.60
2023-02-13T00:38:56.721Z,42.59
2023-02-13T00:39:34.316Z,42.46
2023-02-13T00:40:08.200Z,42.64
2023-02-13T00:40:40.842Z,42.41
2023-02-13T00:41:16.759Z,42.53
2023-02-13T00:41:49.056Z,42.65
2023-02-13T00:42:24.122Z,42.67
2023-02-13T00:42:58.970Z,42.84
2023-02-13T00:43:31.661Z,42.41
2023-02-13T00:44:03.996Z,42.51
2023-02-13T00:44:39.109Z,42.67
2023-02-13T00:45:11.340Z,42.86
2023-02-13T00:45:43.822Z,42.79
2023-02-13T00:46:19.382Z,42.44
2023-02-13T00:46:51.663Z,42.50
2023-02-13T00:47:23.944Z,42.66
2023-02-13T00:47:58.790Z,42.79
2023-02-13T00:48:32.430Z,42.75
2023-02-13T00:49:04.958Z,42.72
2023-02-13T00:49:42.411Z,42.44
2023-02-13T00:50:14.637Z,42.47
2023-02-13T00:50:46.947Z,42.83
2023-02-13T00:51:21.876Z,42.95
2023-02-13T00:51:54.138Z,42.68
2023-02-13T00:52:27.607Z,42.80
2023-02-13T00:53:02.434Z,42.78
2023-02-13T00:53:35.689Z,42.78
2023-02-13T00:54:07.949Z,42.60
2023-02-13T00:54:46.828Z,42.79
2023-02-13T00:55:19.078Z,42.47
2023-02-13T00:55:51.493Z,42.72
2023-02-13T00:56:26.395Z,42.55
2023-02-13T00:56:58.650Z,42.48
2023-02-13T00:57:31.952Z,42.70
2023-02-13T00:58:06.792Z,42.77
2023-02-13T00:58:39.528Z,42.63
2023-02-13T00:59:11.896Z,42.48
2023-02-13T00:59:46.727Z,42.43
2023-02-13T01:00:19.951Z,42.48
2023-02-13T01:00:53.678Z,42.92
2023-02-13T01:01:28.582Z,42.67
2023-02-13T01:02:00.831Z,42.57
2023-02-13T01:02:36.249Z,42.60
2023-02-13T01:03:11.171Z,42.50
2023-02-13T01:03:43.540Z,42.38
2023-02-13T01:04:18.567Z,42.65
2023-02-13T01:04:50.883Z,42.77
2023-02-13T01:05:24.003Z,42.82
2023-02-13T01:05:59.406Z,42.82
2023-02-13T01:06:31.644Z,42.50
2023-02-13T01:07:05.467Z,42.60
2023-02-13T01:07:40.325Z,42.88
2023-02-13T01:08:13.828Z,42.61
2023-02-13T01:08:46.080Z,42.82
2023-02-13T01:09:20.952Z,42.57
2023-02-13T01:09:55.767Z,42.58
2023-02-13T01:10:28.218Z,42.38
2023-02-13T01:11:03.176Z,42.41
2023-02-13T01:11:35.480Z,42.36
2023-02-13T01:12:08.100Z,42.54
2023-02-13T01:12:42.953Z,42.55
2023-02-13T01:13:16.615Z,42.81
2023-02-13T01:13:49.162Z,42.51
2023-02-13T01:14:28.464Z,42.58
2023-02-13T01:15:00.734Z,42.70
2023-02-13T01:15:33.087Z,42.73
2023-02-13T01:16:08.551Z,42.77
2023-02-13T01:16:41.009Z,42.44
2023-02-13T01:17:13.244Z,42.50
2023-02-13T01:17:48.129Z,42.55
2023-02-13T01:18:20.776Z,42.68
2023-02-13T01:18:53.027Z,42.75
2023-02-13T01:19:27.873Z,42.50
2023-02-13T01:20:00.152Z,42.48
2023-02-13T01:20:32.459Z,42.45
2023-02-13T01:21:07.340Z,42.50
2023-02-13T01:21:42.171Z,42.70
2023-02-13T01:22:14.452Z,42.67
2023-02-13T01:22:46.837Z,42.55
2023-02-13T01:23:21.668Z,42.49
2023-02-13T01:23:54.020Z,42.75
2023-02-13T01:24:30.147Z,42.77
2023-02-13T01:25:11.381Z,42.53
2023-02-13T01:25:43.654Z,42.43
2023-02-13T01:26:18.154Z,42.82
2023-02-13T01:26:52.993Z,42.79
2023-02-13T01:27:28.577Z,42.91
2023-02-13T01:28:00.875Z,42.89
2023-02-13T01:28:35.905Z,42.50
2023-02-13T01:29:08.152Z,42.46
2023-02-13T01:29:43.022Z,42.70
2023-02-13T01:30:16.488Z,42.66
2023-02-13T01:30:53.646Z,42.65
2023-02-13T01:31:30.213Z,42.54
2023-02-13T01:32:05.225Z,42.65
2023-02-13T01:32:37.687Z,42.84
2023-02-13T01:33:13.793Z,42.62
2023-02-13T01:33:46.647Z,42.54
2023-02-13T01:34:21.524Z,42.78
2023-02-13T01:34:53.765Z,42.63
2023-02-13T01:35:25.988Z,42.83
2023-02-13T01:35:58.356Z,42.75
2023-02-13T01:36:33.322Z,42.54
2023-02-13T01:37:05.618Z,42.95
2023-02-13T01:37:39.152Z,42.53
2023-02-13T01:38:13.980Z,42.83
2023-02-13T01:38:46.223Z,42.63
2023-02-13T01:39:18.445Z,42.65
2023-02-13T01:39:54.715Z,42.53
2023-02-13T01:40:30.187Z,42.55
2023-02-13T01:41:02.555Z,42.53
2023-02-13T01:41:40.128Z,42.84
2023-02-13T01:42:17.095Z,42.55
2023-02-13T01:42:49.328Z,42.98
2023-02-13T01:43:25.561Z,42.48
2023-02-13T01:43:59.727Z,42.72
2023-02-13T01:44:50.037Z,42.67
2023-02-13T01:45:29.578Z,43.00
2023-02-13T01:46:02.468Z,42.69
2023-02-13T01:46:37.497Z,42.77
2023-02-13T01:47:10.244Z,42.89
2023-02-13T01:47:47.288Z,42.69
2023-02-13T01:48:21.093Z,42.53
2023-02-13T01:48:56.913Z,42.86
2023-02-13T01:49:31.777Z,42.92
2023-02-13T01:50:07.727Z,42.78
2023-02-13T01:50:43.717Z,42.98
2023-02-13T01:51:21.668Z,42.60
2023-02-13T01:51:55.165Z,43.04
2023-02-13T01:52:29.003Z,42.73
2023-02-13T01:53:06.614Z,43.01
2023-02-13T01:53:41.239Z,42.56
2023-02-13T01:54:16.907Z,42.53
2023-02-13T01:54:51.832Z,42.99
2023-02-13T01:55:25.445Z,42.70
2023-02-13T01:56:07.513Z,42.91
2023-02-13T01:56:44.748Z,42.81
2023-02-13T01:57:19.121Z,42.73
2023-02-13T01:57:54.451Z,42.58
2023-02-13T01:58:32.314Z,42.70
2023-02-13T01:59:07.903Z,42.66
2023-02-13T01:59:46.310Z,42.63
2023-02-13T02:00:19.624Z,42.73
2023-02-13T02:00:51.885Z,42.70
2023-02-13T02:01:27.287Z,42.87
2023-02-13T02:02:01.913Z,43.06
2023-02-13T02:02:37.756Z,42.58
2023-02-13T02:03:18.443Z,42.89
2023-02-13T02:03:53.495Z,42.79
2023-02-13T02:04:28.256Z,42.68
2023-02-13T02:05:04.527Z,42.59
2023-02-13T02:05:37.127Z,43.04
2023-02-13T02:06:13.077Z,42.85
2023-02-13T02:06:51.075Z,43.03
2023-02-13T02:07:31.563Z,42.52
2023-02-13T02:08:11.267Z,42.70
2023-02-13T02:08:46.646Z,42.70
2023-02-13T02:09:26.932Z,42.75
2023-02-13T02:10:02.086Z,42.53
2023-02-13T02:10:36.935Z,42.58
2023-02-13T02:11:18.293Z,42.55
2023-02-13T02:11:56.351Z,42.84
2023-02-13T02:12:33.748Z,42.74
2023-02-13T02:13:09.233Z,42.85
2023-02-13T02:13:43.979Z,43.02
2023-02-13T02:14:18.920Z,42.84
2023-02-13T02:14:52.775Z,42.74
2023-02-13T02:15:26.342Z,42.58
2023-02-13T02:16:01.292Z,42.79
2023-02-13T02:16:34.457Z,42.46
2023-02-13T02:17:09.352Z,42.60
2023-02-13T02:17:44.388Z,42.40
2023-02-13T02:18:18.031Z,42.68
2023-02-13T02:18:50.293Z,42.80
2023-02-13T02:19:32.752Z,42.68
2023-02-13T02:20:16.123Z,42.60
2023-02-13T02:21:44.306Z,42.79
2023-02-13T02:22:58.459Z,42.51
2023-02-13T02:23:56.795Z,42.55
2023-02-13T02:25:04.035Z,42.77
2023-02-13T02:26:12.600Z,42.47
2023-02-13T02:27:12.055Z,42.84
2023-02-13T02:28:23.246Z,42.75
2023-02-13T02:29:32.353Z,42.72
2023-02-13T02:30:34.829Z,42.76
2023-02-13T02:31:23.128Z,42.70
2023-02-13T02:32:10.645Z,42.86
2023-02-13T02:33:00.227Z,42.51
2023-02-13T02:33:44.888Z,42.48
2023-02-13T02:34:26.792Z,42.43
2023-02-13T02:35:05.880Z,42.41
2023-02-13T02:35:46.217Z,42.60
2023-02-13T02:36:32.620Z,42.70
2023-02-13T02:37:18.781Z,42.34
2023-02-13T02:38:01.855Z,42.53
2023-02-13T02:38:45.575Z,42.48
2023-02-13T02:39:23.510Z,42.77
2023-02-13T02:40:05.953Z,42.41
2023-02-13T02:40:48.383Z,42.44
2023-02-13T02:41:41.280Z,42.65
2023-02-13T02:42:21.654Z,42.45
2023-02-13T02:43:07.869Z,42.77
2023-02-13T02:43:52.846Z,42.65
2023-02-13T02:44:32.476Z,42.66
2023-02-13T02:45:12.295Z,42.74
2023-02-13T02:45:50.439Z,42.66
2023-02-13T02:46:27.735Z,42.50
2023-02-13T02:47:24.495Z,42.84
2023-02-13T02:48:15.703Z,42.44
2023-02-13T02:49:08.696Z,42.50
2023-02-13T02:50:03.637Z,42.73
2023-02-13T02:50:39.640Z,42.54
2023-02-13T02:51:17.149Z,42.42
2023-02-13T02:51:59.080Z,42.47
2023-02-13T02:52:40.756Z,42.66
2023-02-13T02:53:22.023Z,42.63
2023-02-13T02:54:02.572Z,42.82
2023-02-13T02:54:57.921Z,42.55
2023-02-13T02:55:41.888Z,42.59
2023-02-13T02:56:20.826Z,42.72
2023-02-13T02:56:53.864Z,42.37
2023-02-13T02:57:47.132Z,42.60
2023-02-13T02:58:37.352Z,42.37
2023-02-13T02:59:27.351Z,42.59
2023-02-13T03:00:15.090Z,42.91
2023-02-13T03:01:03.000Z,42.43
2023-02-13T03:01:50.340Z,42.84
2023-02-13T03:02:42.977Z,42.58
2023-02-13T03:03:33.549Z,42.58
2023-02-13T03:04:32.791Z,42.60
2023-02-13T03:05:24.512Z,42.68
2023-02-13T03:06:14.463Z,42.77
2023-02-13T03:06:49.507Z,42.43
2023-02-13T03:07:21.752Z,42.79
2023-02-13T03:07:54.014Z,42.66
2023-02-13T03:08:44.015Z,42.74
2023-02-13T03:09:35.108Z,42.81
2023-02-13T03:10:24.798Z,43.37
2023-02-13T03:11:12.081Z,43.42
2023-02-13T03:12:12.924Z,43.61
2023-02-13T03:13:04.469Z,43.49
2023-02-13T03:13:44.101Z,43.04
2023-02-13T03:14:19.890Z,42.61
2023-02-13T03:14:52.179Z,42.29
2023-02-13T03:15:28.890Z,42.06
2023-02-13T03:16:16.560Z,42.05
2023-02-13T03:17:04.365Z,41.73
2023-02-13T03:17:54.208Z,41.70
2023-02-13T03:18:41.983Z,41.68
2023-02-13T03:19:33.340Z,41.55
2023-02-13T03:20:52.913Z,41.30
2023-02-13T03:21:46.228Z,40.79
2023-02-13T03:22:31.317Z,40.84
2023-02-13T03:23:13.988Z,40.85
2023-02-13T03:23:51.491Z,40.83
2023-02-13T03:24:28.931Z,40.73
2023-02-13T03:25:07.131Z,40.43
2023-02-13T03:25:47.587Z,40.38
2023-02-13T03:26:50.835Z,40.31
2023-02-13T03:27:47.117Z,40.23
2023-02-13T03:28:39.571Z,40.01
2023-02-13T03:29:30.117Z,40.11
2023-02-13T03:30:07.822Z,40.19
2023-02-13T03:30:50.790Z,39.73
2023-02-13T03:31:30.290Z,40.15
2023-02-13T03:32:08.976Z,39.78
2023-02-13T03:32:52.115Z,39.19
2023-02-13T03:33:34.646Z,38.78
2023-02-13T03:34:09.922Z,38.96
2023-02-13T03:35:05.145Z,39.22
2023-02-13T03:35:59.231Z,39.14
2023-02-13T03:36:53.616Z,39.28
2023-02-13T03:37:43.603Z,39.53
2023-02-13T03:38:23.522Z,39.99
2023-02-13T03:39:00.016Z,40.18
2023-02-13T03:39:42.224Z,40.06
2023-02-13T03:40:17.610Z,40.12
2023-02-13T03:41:06.458Z,40.45
2023-02-13T03:41:43.547Z,40.56
2023-02-13T03:42:20.934Z,40.55
2023-02-13T03:42:56.992Z,40.87
2023-02-13T03:43:33.503Z,40.85
2023-02-13T03:44:11.835Z,41.19
2023-02-13T03:45:10.271Z,40.90
2023-02-13T03:45:54.191Z,41.00
2023-02-13T03:46:27.659Z,41.47
2023-02-13T03:47:04.260Z,41.04
2023-02-13T03:47:36.742Z,41.51
2023-02-13T03:48:46.124Z,41.56
2023-02-13T03:49:36.834Z,41.63
2023-02-13T03:50:10.236Z,41.78
2023-02-13T03:50:44.907Z,41.53
2023-02-13T03:51:26.794Z,41.85
2023-02-13T03:52:01.502Z,41.42
2023-02-13T03:52:36.621Z,41.66
2023-02-13T03:53:12.831Z,41.63
2023-02-13T03:53:48.336Z,41.75
2023-02-13T03:54:38.296Z,42.04
2023-02-13T03:55:28.160Z,41.99
2023-02-13T03:56:16.536Z,41.66
2023-02-13T03:57:05.868Z,42.16
2023-02-13T03:57:54.990Z,41.66
2023-02-13T03:58:44.747Z,42.15
2023-02-13T03:59:24.144Z,41.84
2023-02-13T03:59:57.817Z,41.89
2023-02-13T04:00:35.946Z,41.92
2023-02-13T04:01:11.917Z,41.90
2023-02-13T04:01:52.054Z,42.29
2023-02-13T04:02:26.359Z,42.28
2023-02-13T04:03:05.723Z,42.19
2023-02-13T04:03:44.651Z,42.04
2023-02-13T04:04:23.517Z,42.36
2023-02-13T04:05:03.408Z,42.17
2023-02-13T04:05:40.393Z,41.97
2023-02-13T04:06:16.367Z,42.30
2023-02-13T04:06:54.657Z,42.46
2023-02-13T04:07:29.825Z,42.26
2023-02-13T04:08:02.062Z,42.24
2023-02-13T04:08:36.918Z,42.12
2023-02-13T04:09:09.188Z,42.33
2023-02-13T04:09:42.475Z,42.04
2023-02-13T04:10:18.622Z,42.30
2023-02-13T04:10:53.963Z,42.41
2023-02-13T04:11:31.293Z,42.48
2023-02-13T04:12:12.094Z,42.40
2023-02-13T04:12:52.771Z,42.09
2023-02-13T04:13:29.432Z,42.16
2023-02-13T04:14:07.901Z,42.40
2023-02-13T04:14:43.195Z,42.04
2023-02-13T04:15:17.053Z,42.34
2023-02-13T04:15:54.275Z,42.26
2023-02-13T04:16:30.752Z,42.45
2023-02-13T04:17:05.938Z,42.28
2023-02-13T04:17:44.525Z,42.41
2023-02-13T04:18:19.149Z,42.50
2023-02-13T04:18:55.116Z,42.40
2023-02-13T04:19:30.323Z,42.21
2023-02-13T04:20:02.700Z,42.46
2023-02-13T04:20:37.775Z,42.19
2023-02-13T04:21:10.052Z,42.17
2023-02-13T04:21:42.318Z,42.62
2023-02-13T04:22:17.313Z,42.21
2023-02-13T04:22:49.699Z,42.26
2023-02-13T04:23:21.940Z,42.54
2023-02-13T04:23:56.809Z,42.62
2023-02-13T04:24:29.278Z,42.12
2023-02-13T04:25:01.572Z,42.53
2023-02-13T04:25:36.782Z,42.40
2023-02-13T04:26:13.571Z,42.58
2023-02-13T04:26:46.179Z,42.35
2023-02-13T04:27:21.059Z,42.15
2023-02-13T04:27:53.316Z,42.19
2023-02-13T04:28:25.696Z,42.53
2023-02-13T04:28:57.921Z,42.24
2023-02-13T04:29:32.752Z,42.13
2023-02-13T04:30:06.634Z,42.31
2023-02-13T04:30:39.061Z,42.41
2023-02-13T04:31:14.177Z,42.53
2023-02-13T04:31:46.668Z,42.07
2023-02-13T04:32:19.007Z,42.34
2023-02-13T04:32:54.237Z,42.47
2023-02-13T04:33:26.542Z,42.26
2023-02-13T04:34:01.421Z,42.39
2023-02-13T04:34:36.386Z,42.12
2023-02-13T04:35:09.472Z,42.04
2023-02-13T04:35:41.702Z,42.38
2023-02-13T04:36:16.563Z,42.41
2023-02-13T04:36:48.806Z,42.07
2023-02-13T04:37:21.022Z,42.04
2023-02-13T04:37:55.841Z,42.43
2023-02-13T04:38:28.060Z,42.28
2023-02-13T04:39:00.284Z,42.29
2023-02-13T04:39:35.161Z,42.04
2023-02-13T04:40:08.989Z,42.21
2023-02-13T04:40:41.248Z,42.25
2023-02-13T04:41:16.391Z,42.35
2023-02-13T04:41:48.678Z,42.14
2023-02-13T04:42:20.911Z,42.46
2023-02-13T04:42:55.912Z,41.87
2023-02-13T04:43:28.191Z,42.15
2023-02-13T04:44:00.413Z,42.18
2023-02-13T04:44:35.245Z,42.52
2023-02-13T04:45:08.280Z,42.26
2023-02-13T04:45:40.507Z,42.12
2023-02-13T04:46:15.438Z,42.41
2023-02-13T04:46:47.695Z,42.37
2023-02-13T04:47:19.922Z,42.20
2023-02-13T04:47:55.500Z,42.07
2023-02-13T04:48:27.768Z,42.46
2023-02-13T04:49:02.672Z,42.12
2023-02-13T04:49:37.502Z,42.32
2023-02-13T04:50:10.563Z,42.37
2023-02-13T04:50:42.845Z,42.09
2023-02-13T04:51:17.757Z,42.25
2023-02-13T04:51:50.009Z,42.32
2023-02-13T04:52:22.243Z,42.36
2023-02-13T04:52:57.769Z,42.34
2023-02-13T04:53:30.052Z,42.34
2023-02-13T04:54:02.569Z,42.07
2023-02-13T04:54:34.795Z,42.11
2023-02-13T04:55:10.051Z,42.44
2023-02-13T04:55:42.301Z,42.07
2023-02-13T04:56:14.560Z,42.07
2023-02-13T04:56:49.461Z,42.09
2023-02-13T04:57:21.710Z,42.17
2023-02-13T04:57:54.429Z,42.45
2023-02-13T04:58:29.269Z,42.48
2023-02-13T04:59:01.487Z,42.44
2023-02-13T04:59:33.705Z,42.39
2023-02-13T05:00:10.420Z,42.37
2023-02-13T05:00:42.647Z,42.52
2023-02-13T05:01:15.725Z,42.43
2023-02-13T05:01:50.559Z,42.51
2023-02-13T05:02:22.863Z,42.11
2023-02-13T05:02:55.383Z,42.35
2023-02-13T05:03:30.237Z,42.40
2023-02-13T05:04:05.248Z,42.09
2023-02-13T05:04:37.516Z,42.55
2023-02-13T05:05:12.360Z,42.33
2023-02-13T05:05:44.787Z,42.19
2023-02-13T05:06:17.160Z,42.18
2023-02-13T05:06:51.984Z,42.53
2023-02-13T05:07:24.263Z,42.36
2023-02-13T05:07:56.507Z,42.55
2023-02-13T05:08:31.332Z,42.42
2023-02-13T05:09:03.763Z,42.52
2023-02-13T05:09:35.995Z,42.31
2023-02-13T05:10:12.302Z,42.58
2023-02-13T05:10:44.532Z,42.17
2023-02-13T05:11:16.756Z,42.43
2023-02-13T05:11:54.501Z,42.55
2023-02-13T05:12:26.999Z,42.46
2023-02-13T05:12:59.499Z,42.61
2023-02-13T05:13:34.455Z,42.33
2023-02-13T05:14:06.701Z,42.59
2023-02-13T05:14:38.929Z,42.55
2023-02-13T05:15:13.783Z,42.16
2023-02-13T05:15:48.031Z,42.24
2023-02-13T05:16:22.885Z,42.20
2023-02-13T05:16:55.166Z,42.42
2023-02-13T05:17:28.401Z,42.41
2023-02-13T05:18:03.298Z,42.38
2023-02-13T05:18:35.533Z,42.60
2023-02-13T05:19:13.308Z,42.08
2023-02-13T05:19:45.603Z,42.53
2023-02-13T05:20:18.442Z,42.12
2023-02-13T05:21:05.507Z,42.21
2023-02-13T05:21:52.746Z,42.36
2023-02-13T05:22:40.046Z,42.14
2023-02-13T05:23:26.425Z,42.11
2023-02-13T05:23:58.630Z,42.18
2023-02-13T05:24:30.855Z,42.37
2023-02-13T05:25:05.746Z,42.29
2023-02-13T05:25:39.324Z,42.33
2023-02-13T05:26:11.556Z,42.55
2023-02-13T05:26:46.468Z,42.50
2023-02-13T05:27:18.739Z,42.63
2023-02-13T05:27:50.968Z,42.29
2023-02-13T05:28:38.306Z,42.31
2023-02-13T05:29:23.033Z,42.46
2023-02-13T05:29:55.361Z,42.31
2023-02-13T05:30:27.631Z,42.59
2023-02-13T05:31:00.321Z,42.43
2023-02-13T05:31:35.586Z,42.59
2023-02-13T05:32:08.021Z,42.50
2023-02-13T05:32:42.536Z,42.50
2023-02-13T05:33:17.367Z,42.66
2023-02-13T05:33:49.616Z,42.31
2023-02-13T05:34:26.732Z,42.65
2023-02-13T05:35:04.041Z,42.41
2023-02-13T05:35:36.704Z,42.27
2023-02-13T05:36:09.031Z,42.61
2023-02-13T05:36:43.865Z,42.58
2023-02-13T05:37:16.087Z,42.21
2023-02-13T05:37:51.138Z,42.61
2023-02-13T05:38:23.413Z,42.62
2023-02-13T05:38:55.642Z,42.61
2023-02-13T05:39:30.552Z,42.21
2023-02-13T05:40:02.865Z,42.62
2023-02-13T05:40:35.113Z,42.33
2023-02-13T05:41:10.001Z,42.29
2023-02-13T05:41:42.696Z,42.37
2023-02-13T05:42:14.972Z,42.19
2023-02-13T05:42:50.068Z,42.19
2023-02-13T05:43:22.331Z,42.53
2023-02-13T05:43:54.597Z,42.21
2023-02-13T05:44:29.425Z,42.29
2023-02-13T05:45:01.652Z,42.48
2023-02-13T05:45:33.993Z,42.45
2023-02-13T05:46:10.280Z,42.20
2023-02-13T05:46:43.117Z,42.38
2023-02-13T05:47:18.020Z,42.63
2023-02-13T05:47:50.250Z,42.63
2023-02-13T05:48:22.469Z,42.33
2023-02-13T05:48:57.313Z,42.24
2023-02-13T05:49:32.156Z,42.14
2023-02-13T05:50:05.042Z,42.25
2023-02-13T05:50:39.990Z,42.57
2023-02-13T05:51:12.364Z,42.17
2023-02-13T05:51:46.521Z,42.44
2023-02-13T05:52:21.391Z,42.20
2023-02-13T05:52:53.612Z,42.48
2023-02-13T05:53:25.992Z,42.60
2023-02-13T05:54:01.069Z,42.41
2023-02-13T05:54:33.297Z,42.57
2023-02-13T05:55:09.044Z,42.25
2023-02-13T05:55:41.273Z,42.63
2023-02-13T05:56:13.525Z,42.24
2023-02-13T05:56:48.599Z,42.64
2023-02-13T05:57:20.880Z,42.67
2023-02-13T05:57:56.525Z,42.36
2023-02-13T05:58:31.620Z,42.68
2023-02-13T05:59:04.296Z,42.33
2023-02-13T05:59:36.548Z,42.65
2023-02-13T06:00:12.500Z,42.28
2023-02-13T06:00:44.763Z,42.42
2023-02-13T06:01:16.984Z,42.71
2023-02-13T06:01:51.800Z,42.37
2023-02-13T06:02:24.086Z,42.63
2023-02-13T06:02:56.382Z,42.41
2023-02-13T06:03:32.418Z,42.79
2023-02-13T06:04:05.138Z,42.54
2023-02-13T06:04:42.633Z,42.60
2023-02-13T06:05:15.023Z,42.87
2023-02-13T06:05:47.244Z,42.50
2023-02-13T06:06:22.869Z,42.77
2023-02-13T06:06:55.120Z,42.91
2023-02-13T06:07:29.971Z,42.43
2023-02-13T06:08:02.204Z,42.82
2023-02-13T06:08:34.451Z,42.53
2023-02-13T06:09:09.289Z,42.60
2023-02-13T06:09:41.653Z,42.79
2023-02-13T06:10:13.893Z,42.58
2023-02-13T06:10:49.235Z,42.42
2023-02-13T06:11:21.659Z,42.55
2023-02-13T06:11:53.880Z,42.50
2023-02-13T06:12:28.723Z,42.54
2023-02-13T06:13:00.973Z,42.89
2023-02-13T06:13:33.228Z,42.63
2023-02-13T06:14:08.103Z,42.50
2023-02-13T06:14:40.319Z,42.66
2023-02-13T06:15:13.215Z,42.38
2023-02-13T06:15:48.212Z,42.57
2023-02-13T06:16:20.605Z,42.59
2023-02-13T06:16:55.484Z,42.31
2023-02-13T06:17:27.817Z,42.59
2023-02-13T06:18:00.132Z,42.33
2023-02-13T06:18:34.962Z,42.36
2023-02-13T06:19:07.470Z,42.58
2023-02-13T06:19:42.314Z,42.24
2023-02-13T06:20:17.218Z,42.64
2023-02-13T06:20:49.626Z,42.46
2023-02-13T06:21:24.451Z,42.47
2023-02-13T06:21:56.706Z,42.24
2023-02-13T06:22:28.915Z,42.55
2023-02-13T06:23:06.831Z,42.65
2023-02-13T06:23:39.088Z,42.72
2023-02-13T06:24:13.988Z,42.94
2023-02-13T06:24:46.213Z,42.77
2023-02-13T06:25:19.226Z,43.05
2023-02-13T06:25:54.243Z,42.92
2023-02-13T06:26:26.467Z,42.75
2023-02-13T06:26:58.733Z,42.75
2023-02-13T06:27:33.560Z,42.55
2023-02-13T06:28:06.235Z,42.67
2023-02-13T06:28:41.250Z,42.72
2023-02-13T06:29:13.484Z,42.37
2023-02-13T06:29:45.831Z,42.40
2023-02-13T06:30:21.668Z,42.46
2023-02-13T06:30:53.939Z,42.26
2023-02-13T06:31:28.920Z,42.53
2023-02-13T06:32:01.285Z,42.31
2023-02-13T06:32:33.589Z,42.38
2023-02-13T06:33:08.463Z,42.56
2023-02-13T06:33:40.683Z,42.48
2023-02-13T06:34:15.669Z,42.49
2023-02-13T06:34:50.538Z,42.46
2023-02-13T06:35:22.766Z,42.46
2023-02-13T06:35:57.658Z,42.50
2023-02-13T06:36:30.087Z,42.55
2023-02-13T06:37:02.381Z,42.30
2023-02-13T06:37:37.277Z,42.41
2023-02-13T06:38:09.601Z,42.02
2023-02-13T06:38:41.926Z,42.21
2023-02-13T06:39:16.946Z,41.95
2023-02-13T06:39:49.195Z,42.34
2023-02-13T06:40:21.453Z,42.03
2023-02-13T06:40:56.584Z,42.14
2023-02-13T06:41:28.991Z,41.80
2023-02-13T06:42:01.216Z,41.75
2023-02-13T06:42:36.088Z,41.85
2023-02-13T06:43:08.295Z,41.67
2023-02-13T06:43:43.164Z,42.13
2023-02-13T06:44:15.366Z,42.09
2023-02-13T06:44:47.583Z,41.66
2023-02-13T06:45:22.415Z,42.12
2023-02-13T06:45:54.658Z,41.92
2023-02-13T06:46:29.609Z,41.63
2023-02-13T06:47:02.041Z,41.63
2023-02-13T06:47:34.408Z,41.90
2023-02-13T06:48:09.283Z,41.71
2023-02-13T06:48:41.529Z,42.07
2023-02-13T06:49:13.988Z,41.55
2023-02-13T06:49:48.829Z,41.89
2023-02-13T06:50:23.705Z,41.64
2023-02-13T06:50:58.827Z,41.92
2023-02-13T06:51:31.267Z,41.59
2023-02-13T06:52:03.680Z,41.51
2023-02-13T06:52:38.576Z,41.49
2023-02-13T06:53:10.863Z,41.92
2023-02-13T06:53:45.659Z,41.89
2023-02-13T06:54:18.241Z,41.95
2023-02-13T06:54:50.481Z,41.46
2023-02-13T06:55:25.299Z,41.88
2023-02-13T06:55:57.928Z,41.44
2023-02-13T06:56:30.168Z,41.42
2023-02-13T06:57:04.984Z,41.74
2023-02-13T06:57:37.205Z,41.42
2023-02-13T06:58:12.020Z,41.41
2023-02-13T06:58:44.507Z,41.87
2023-02-13T06:59:19.367Z,41.77
2023-02-13T06:59:51.593Z,41.38
2023-02-13T07:00:27.219Z,41.46
2023-02-13T07:00:59.767Z,41.76
2023-02-13T07:01:35.243Z,41.44
2023-02-13T07:02:07.491Z,41.47
2023-02-13T07:02:39.947Z,41.79
2023-02-13T07:03:14.804Z,41.66
2023-02-13T07:03:48.857Z,41.67
2023-02-13T07:04:21.120Z,41.52
2023-02-13T07:04:55.932Z,41.65
2023-02-13T07:05:30.818Z,41.26
2023-02-13T07:06:05.687Z,41.33
2023-02-13T07:06:37.924Z,41.56
2023-02-13T07:07:10.132Z,41.43
2023-02-13T07:07:45.459Z,41.61
2023-02-13T07:08:18.041Z,41.38
2023-02-13T07:08:56.059Z,41.29
2023-02-13T07:09:28.625Z,41.46
2023-02-13T07:10:01.317Z,41.14
2023-02-13T07:10:36.187Z,41.34
2023-02-13T07:11:08.486Z,41.53
2023-02-13T07:11:40.717Z,40.99
2023-02-13T07:12:15.590Z,41.42
2023-02-13T07:13:03.636Z,41.15
2023-02-13T07:13:39.984Z,41.03
2023-02-13T07:14:12.217Z,41.07
2023-02-13T07:14:44.450Z,41.27
2023-02-13T07:15:19.717Z,41.15
2023-02-13T07:15:52.019Z,41.12
2023-02-13T07:16:27.180Z,41.48
2023-02-13T07:16:59.503Z,41.10
2023-02-13T07:17:31.770Z,41.13
2023-02-13T07:18:07.907Z,41.49
2023-02-13T07:18:40.185Z,41.07
2023-02-13T07:19:15.029Z,41.18
2023-02-13T07:19:47.253Z,41.65
2023-02-13T07:20:19.677Z,41.26
2023-02-13T07:20:57.364Z,41.10
2023-02-13T07:21:29.780Z,41.51
2023-02-13T07:22:02.008Z,41.14
2023-02-13T07:22:37.456Z,41.54
2023-02-13T07:23:10.858Z,41.56
2023-02-13T07:23:43.091Z,41.15
2023-02-13T07:24:17.946Z,41.15
2023-02-13T07:24:50.199Z,41.47
2023-02-13T07:25:25.014Z,41.56
2023-02-13T07:25:59.367Z,41.34
2023-02-13T07:26:34.203Z,41.44
2023-02-13T07:27:06.503Z,41.37
2023-02-13T07:27:38.724Z,41.51
2023-02-13T07:28:13.689Z,41.20
2023-02-13T07:28:46.031Z,41.47
2023-02-13T07:29:18.247Z,41.39
2023-02-13T07:29:53.182Z,41.05
2023-02-13T07:30:25.469Z,41.44
2023-02-13T07:31:00.568Z,41.22
2023-02-13T07:31:33.853Z,41.51
2023-02-13T07:32:07.249Z,41.27
2023-02-13T07:32:42.135Z,41.40
2023-02-13T07:33:14.459Z,41.28
2023-02-13T07:33:49.032Z,41.36
2023-02-13T07:34:23.857Z,41.52
2023-02-13T07:35:02.098Z,41.44
2023-02-13T07:35:36.294Z,41.51
2023-02-13T07:36:13.955Z,41.09
2023-02-13T07:36:46.175Z,41.42
2023-02-13T07:37:18.455Z,41.49
2023-02-13T07:37:53.344Z,41.52
2023-02-13T07:38:25.594Z,41.27
2023-02-13T07:38:57.828Z,41.07
2023-02-13T07:39:33.232Z,41.34
2023-02-13T07:40:07.160Z,41.41
2023-02-13T07:40:42.008Z,41.24
2023-02-13T07:41:14.256Z,41.27
2023-02-13T07:41:46.512Z,41.39
2023-02-13T07:42:23.890Z,41.28
2023-02-13T07:42:56.297Z,41.37
2023-02-13T07:43:28.786Z,41.15
2023-02-13T07:44:03.698Z,41.51
2023-02-13T07:44:35.952Z,41.32
2023-02-13T07:45:12.091Z,41.29
2023-02-13T07:45:44.308Z,41.44
2023-02-13T07:46:19.206Z,41.54